Hustontown, Pennsylvania
Current Conditions -  °F | °C
As of 11:53 AM on Saturday 25 Oct 2014 (Local Time) from KAOO Reporting Station
Clear Clear  
Wind Chill: 62°   Ceiling: Unl
Heat Index: 62°   Visibility: 10mi
Dew Point: 46°   Wind: 16mph
Humidity: 56%   Direction: 290°WNW
Pressure: 29.87"   Gusts: 26mph
Location:  40.05°N, 78.03°W
Report Text: KAOO 251553Z AUTO 29014G23KT 10SM CLR 17/08 A2987 RMK AO2 SLP115 T01670078
Loading
Personal Weather Stations






























Interactive Weather Map
Tropical Storm Tracking
New forecast layout! Learn more

10-Day Weather Forecast

Advertisements
Track Severe Weather on mobile